Time;durP1;ratioP1;P1;durP2;ratioP2;P2;SDS_P1;SDS_P2;PMS_P1;PMS_P2;Temp;Humidity;BMP_temperature;BMP_pressure;BME280_temperature;BME280_humidity;BME280_pressure;Samples;Min_cycle;Max_cycle;Signal;HPM_P1;HPM_P2
2022/10/30 00:02:07;;;;;;;7.40;3.78;;;;;;;;;;5072403;28;20408;-73
2022/10/30 00:04:33;;;;;;;8.40;3.40;;;;;;;;;;5075953;28;20021;-74
2022/10/30 00:06:59;;;;;;;13.30;4.03;;;;;;;;;;5076066;28;20028;-73
2022/10/30 00:09:26;;;;;;;10.38;3.95;;;;;;;;;;5076035;28;20021;-73
2022/10/30 00:11:52;;;;;;;8.00;3.50;;;;;;;;;;5075491;28;20477;-73
2022/10/30 00:14:18;;;;;;;9.38;3.58;;;;;;;;;;5075599;28;20044;-73
2022/10/30 00:16:45;;;;;;;8.90;3.42;;;;;;;;;;5076025;28;20073;-73
2022/10/30 00:19:11;;;;;;;10.63;3.75;;;;;;;;;;5074844;28;20032;-73
2022/10/30 00:21:37;;;;;;;6.82;3.20;;;;;;;;;;5075560;28;20490;-73
2022/10/30 00:24:03;;;;;;;8.27;3.70;;;;;;;;;;5075592;28;20025;-73
2022/10/30 00:26:31;;;;;;;7.60;3.58;;;;;;;;;;5074366;28;20465;-73
2022/10/30 00:28:57;;;;;;;9.32;3.47;;;;;;;;;;5075282;28;20035;-73
2022/10/30 00:31:24;;;;;;;7.80;3.67;;;;;;;;;;5075706;28;20427;-73
2022/10/30 00:33:51;;;;;;;11.25;3.63;;;;;;;;;;5075195;28;20024;-73
2022/10/30 00:36:18;;;;;;;10.10;3.25;;;;;;;;;;5075270;28;20027;-73
2022/10/30 00:38:44;;;;;;;12.73;4.00;;;;;;;;;;5075246;28;20024;-73
2022/10/30 00:41:21;;;;;;;9.95;3.70;;;;;;;;;;5075320;28;20385;-73
2022/10/30 00:43:47;;;;;;;6.80;3.75;;;;;;;;;;5075252;28;20023;-73
2022/10/30 00:46:29;;;;;;;10.35;4.50;;;;;;;;;;5075447;28;20385;-73
2022/10/30 00:49:15;;;;;;;10.75;4.38;;;;;;;;;;5075028;28;20036;-73
2022/10/30 00:51:45;;;;;;;15.10;5.60;;;;;;;;;;5075251;28;20043;-73
2022/10/30 00:54:14;;;;;;;16.33;5.80;;;;;;;;;;5075763;28;20089;-73
2022/10/30 00:56:40;;;;;;;21.50;6.13;;;;;;;;;;5074992;28;20262;-73
2022/10/30 00:59:09;;;;;;;15.48;5.53;;;;;;;;;;5075195;28;20026;-73
2022/10/30 01:01:37;;;;;;;16.88;5.57;;;;;;;;;;5074769;28;20036;-73
2022/10/30 01:04:05;;;;;;;15.38;5.78;;;;;;;;;;5073983;28;20062;-73
2022/10/30 01:06:32;;;;;;;18.38;6.72;;;;;;;;;;5074842;28;20017;-73
2022/10/30 01:08:59;;;;;;;15.82;6.20;;;;;;;;;;5074189;28;20028;-73
2022/10/30 01:11:25;;;;;;;16.55;7.28;;;;;;;;;;5075032;28;20025;-73
2022/10/30 01:13:53;;;;;;;27.92;7.47;;;;;;;;;;5074682;28;20050;-73
2022/10/30 01:16:22;;;;;;;21.13;6.65;;;;;;;;;;5074606;28;20031;-73
2022/10/30 01:19:07;;;;;;;20.67;7.05;;;;;;;;;;5073850;28;20032;-73
2022/10/30 01:21:37;;;;;;;19.83;7.05;;;;;;;;;;5074914;28;20032;-73
2022/10/30 01:24:09;;;;;;;24.13;7.50;;;;;;;;;;5074874;28;20474;-73
2022/10/30 01:26:48;;;;;;;22.27;6.93;;;;;;;;;;5074709;28;20062;-73
2022/10/30 01:29:34;;;;;;;25.48;7.85;;;;;;;;;;5074664;28;20058;-73
2022/10/30 01:32:19;;;;;;;26.70;8.40;;;;;;;;;;5073993;28;20058;-73
2022/10/30 01:34:50;;;;;;;16.05;6.90;;;;;;;;;;5074124;28;20029;-73
2022/10/30 01:37:16;;;;;;;;;;;;;;;;;;5074745;28;20039;-73
2022/10/30 01:39:42;;;;;;;14.38;6.47;;;;;;;;;;5074586;28;20304;-73
2022/10/30 01:42:27;;;;;;;18.90;7.70;;;;;;;;;;5074696;28;20024;-73
2022/10/30 01:44:53;;;;;;;20.38;7.18;;;;;;;;;;5074067;28;20025;-73
2022/10/30 01:47:26;;;;;;;27.85;7.85;;;;;;;;;;5073890;28;20031;-73
2022/10/30 01:50:02;;;;;;;28.38;8.52;;;;;;;;;;5074621;28;20078;-73
2022/10/30 01:52:36;;;;;;;29.65;8.43;;;;;;;;;;5074054;28;20029;-73
2022/10/30 01:55:06;;;;;;;16.00;8.00;;;;;;;;;;5074465;28;20050;-73
2022/10/30 01:57:36;;;;;;;19.00;7.67;;;;;;;;;;5074356;28;20024;-73
2022/10/30 02:00:07;;;;;;;23.23;8.57;;;;;;;;;;5074429;28;20416;-73
2022/10/30 02:02:33;;;;;;;21.45;7.35;;;;;;;;;;5073268;28;20024;-73
2022/10/30 02:05:00;;;;;;;31.38;7.90;;;;;;;;;;5073617;28;20031;-73
2022/10/30 02:07:27;;;;;;;22.05;7.68;;;;;;;;;;5073336;28;20033;-73
2022/10/30 02:09:53;;;;;;;22.45;8.00;;;;;;;;;;5073393;28;20020;-73
2022/10/30 02:12:21;;;;;;;21.27;8.00;;;;;;;;;;5073521;28;20036;-73
2022/10/30 02:14:49;;;;;;;21.55;7.55;;;;;;;;;;5073126;28;20048;-73
2022/10/30 02:17:16;;;;;;;23.83;7.70;;;;;;;;;;5072941;28;20036;-73
2022/10/30 02:19:42;;;;;;;24.45;7.82;;;;;;;;;;5073286;28;20032;-73
2022/10/30 02:22:09;;;;;;;28.25;8.07;;;;;;;;;;5073331;28;20024;-73
2022/10/30 02:24:35;;;;;;;25.90;7.80;;;;;;;;;;5073467;28;20028;-73
2022/10/30 02:27:01;;;;;;;26.55;8.65;;;;;;;;;;5073083;28;20032;-73
2022/10/30 02:29:28;;;;;;;25.63;8.45;;;;;;;;;;5073098;28;20400;-73
2022/10/30 02:31:54;;;;;;;19.20;7.28;;;;;;;;;;5072910;28;20020;-73
2022/10/30 02:34:21;;;;;;;22.02;8.20;;;;;;;;;;5073167;28;20473;-73
2022/10/30 02:36:47;;;;;;;23.75;7.80;;;;;;;;;;5073213;28;20055;-73
2022/10/30 02:39:13;;;;;;;22.17;7.85;;;;;;;;;;5073419;28;20027;-73
2022/10/30 02:41:40;;;;;;;18.92;7.63;;;;;;;;;;5073089;28;20028;-73
2022/10/30 02:44:06;;;;;;;21.75;7.57;;;;;;;;;;5072072;28;20031;-73
2022/10/30 02:46:33;;;;;;;20.40;7.82;;;;;;;;;;5072785;28;20039;-72
2022/10/30 02:49:00;;;;;;;20.77;7.47;;;;;;;;;;5073156;28;20451;-73
2022/10/30 02:51:26;;;;;;;20.67;7.13;;;;;;;;;;5073095;28;20021;-73
2022/10/30 02:53:53;;;;;;;20.95;7.63;;;;;;;;;;5072969;28;20017;-73
2022/10/30 02:56:19;;;;;;;20.63;7.18;;;;;;;;;;5072876;28;20021;-73
2022/10/30 02:58:45;;;;;;;21.40;7.32;;;;;;;;;;5072867;28;20478;-73
2022/10/30 03:01:14;;;;;;;25.90;6.68;;;;;;;;;;5072568;28;20381;-73
2022/10/30 03:03:40;;;;;;;22.00;6.72;;;;;;;;;;5072011;28;20023;-73
2022/10/30 03:06:08;;;;;;;16.90;6.35;;;;;;;;;;5073158;28;20021;-73
2022/10/30 03:08:34;;;;;;;19.48;5.63;;;;;;;;;;5073192;28;20028;-73
2022/10/30 03:11:05;;;;;;;14.05;5.47;;;;;;;;;;5073062;28;20030;-73
2022/10/30 03:13:33;;;;;;;15.70;4.75;;;;;;;;;;5072363;28;20050;-73
2022/10/30 03:16:09;;;;;;;14.65;5.18;;;;;;;;;;5071807;28;20033;-73
2022/10/30 03:18:36;;;;;;;20.10;5.43;;;;;;;;;;5072583;28;20358;-73
2022/10/30 03:21:03;;;;;;;13.38;5.15;;;;;;;;;;5072968;28;20074;-72
2022/10/30 03:23:29;;;;;;;10.77;4.75;;;;;;;;;;5072272;28;20021;-73
2022/10/30 03:25:57;;;;;;;15.20;4.90;;;;;;;;;;5072783;28;20027;-72
2022/10/30 03:28:24;;;;;;;12.55;4.70;;;;;;;;;;5072981;28;20035;-72
2022/10/30 03:30:51;;;;;;;11.60;4.57;;;;;;;;;;5073176;28;20024;-72
2022/10/30 03:33:17;;;;;;;13.15;4.70;;;;;;;;;;5072896;28;20032;-73
2022/10/30 03:35:44;;;;;;;18.80;4.78;;;;;;;;;;5072874;28;20030;-73
2022/10/30 03:38:11;;;;;;;10.95;4.47;;;;;;;;;;5073766;28;20039;-73
2022/10/30 03:40:38;;;;;;;15.13;4.68;;;;;;;;;;5076880;28;20025;-73
2022/10/30 03:43:04;;;;;;;12.13;5.05;;;;;;;;;;5076112;28;20021;-73
2022/10/30 03:45:32;;;;;;;20.33;5.15;;;;;;;;;;5076338;28;20035;-72
2022/10/30 03:48:00;;;;;;;14.63;4.70;;;;;;;;;;5076126;28;20021;-73
2022/10/30 03:50:27;;;;;;;17.85;5.55;;;;;;;;;;5076488;28;20039;-72
2022/10/30 03:52:54;;;;;;;15.23;5.18;;;;;;;;;;5076545;28;20025;-73
2022/10/30 03:55:20;;;;;;;10.32;4.85;;;;;;;;;;5076663;28;20354;-72
2022/10/30 03:57:47;;;;;;;18.50;6.18;;;;;;;;;;5074764;28;20024;-73
2022/10/30 04:00:14;;;;;;;16.67;5.60;;;;;;;;;;5076506;28;20381;-73
2022/10/30 04:02:44;;;;;;;13.50;6.03;;;;;;;;;;5076380;28;20515;-73
2022/10/30 04:05:10;;;;;;;20.80;6.00;;;;;;;;;;5076167;28;20055;-73
2022/10/30 04:07:37;;;;;;;21.15;5.90;;;;;;;;;;5076171;28;20255;-73
2022/10/30 04:10:03;;;;;;;13.75;5.47;;;;;;;;;;5076784;28;20012;-74
2022/10/30 04:12:29;;;;;;;14.68;5.07;;;;;;;;;;5076674;28;20059;-73
2022/10/30 04:14:56;;;;;;;15.45;4.95;;;;;;;;;;5074819;28;20043;-73
2022/10/30 04:17:22;;;;;;;13.30;5.13;;;;;;;;;;5076049;28;20485;-73
2022/10/30 04:19:48;;;;;;;17.88;5.72;;;;;;;;;;5075517;28;20440;-73
2022/10/30 04:22:15;;;;;;;20.65;5.55;;;;;;;;;;5075847;28;20021;-73
2022/10/30 04:24:41;;;;;;;13.88;4.85;;;;;;;;;;5076545;28;20028;-73
2022/10/30 04:27:08;;;;;;;18.23;5.22;;;;;;;;;;5075647;28;20024;-73
2022/10/30 04:29:36;;;;;;;13.55;5.53;;;;;;;;;;5075846;28;20029;-73
2022/10/30 04:32:02;;;;;;;16.77;6.10;;;;;;;;;;5076169;28;20025;-73
2022/10/30 04:34:29;;;;;;;18.73;5.22;;;;;;;;;;5074959;28;20492;-72
2022/10/30 04:36:55;;;;;;;16.52;5.60;;;;;;;;;;5076262;28;20028;-73
2022/10/30 04:39:21;;;;;;;18.75;5.10;;;;;;;;;;5075749;28;20378;-73
2022/10/30 04:41:48;;;;;;;14.48;5.38;;;;;;;;;;5075675;28;20388;-73
2022/10/30 04:44:14;;;;;;;15.30;5.00;;;;;;;;;;5075799;28;20016;-73
2022/10/30 04:46:40;;;;;;;20.30;5.20;;;;;;;;;;5075876;28;20492;-73
2022/10/30 04:49:07;;;;;;;13.75;5.47;;;;;;;;;;5075122;28;20038;-73
2022/10/30 04:51:33;;;;;;;15.60;5.38;;;;;;;;;;5075410;28;20397;-73
2022/10/30 04:53:59;;;;;;;16.10;5.28;;;;;;;;;;5075285;28;20029;-73
2022/10/30 04:56:26;;;;;;;18.50;5.50;;;;;;;;;;5073647;28;20037;-73
2022/10/30 04:58:53;;;;;;;15.73;5.60;;;;;;;;;;5075063;28;20025;-73
2022/10/30 05:01:19;;;;;;;12.93;4.70;;;;;;;;;;5075099;28;20470;-73
2022/10/30 05:03:46;;;;;;;11.27;5.63;;;;;;;;;;5075602;28;20021;-73
2022/10/30 05:06:25;;;;;;;14.00;6.03;;;;;;;;;;5075005;28;20384;-73
2022/10/30 05:08:51;;;;;;;10.38;5.47;;;;;;;;;;5074721;28;20396;-73
2022/10/30 05:11:18;;;;;;;16.55;5.40;;;;;;;;;;5075261;28;20021;-73
2022/10/30 05:13:44;;;;;;;17.92;5.50;;;;;;;;;;5074974;28;20097;-73
2022/10/30 05:16:11;;;;;;;16.40;6.05;;;;;;;;;;5075651;28;20481;-73
2022/10/30 05:18:37;;;;;;;18.85;5.93;;;;;;;;;;5075084;28;20043;-73
2022/10/30 05:21:03;;;;;;;14.38;6.50;;;;;;;;;;5074668;28;20404;-72
2022/10/30 05:23:30;;;;;;;16.08;5.43;;;;;;;;;;5074911;28;20021;-72
2022/10/30 05:25:56;;;;;;;14.77;5.50;;;;;;;;;;5075052;28;20023;-73
2022/10/30 05:28:22;;;;;;;14.45;5.05;;;;;;;;;;5074363;28;20017;-73
2022/10/30 05:30:52;;;;;;;15.82;5.45;;;;;;;;;;5075093;28;20034;-73
2022/10/30 05:33:19;;;;;;;21.13;6.20;;;;;;;;;;5073268;28;20036;-73
2022/10/30 05:35:45;;;;;;;18.00;6.40;;;;;;;;;;5074675;28;20024;-73
2022/10/30 05:38:12;;;;;;;17.35;5.72;;;;;;;;;;5072687;28;20029;-73
2022/10/30 05:40:38;;;;;;;18.08;6.13;;;;;;;;;;5074914;28;20040;-73
2022/10/30 05:43:05;;;;;;;20.20;6.47;;;;;;;;;;5074553;28;20032;-73
2022/10/30 05:45:31;;;;;;;17.98;6.10;;;;;;;;;;5075345;28;20093;-73
2022/10/30 05:48:00;;;;;;;24.13;6.55;;;;;;;;;;5074176;28;20028;-73
2022/10/30 05:50:27;;;;;;;17.02;6.22;;;;;;;;;;5074257;28;20020;-73
2022/10/30 05:52:57;;;;;;;14.52;6.68;;;;;;;;;;5073662;28;20044;-73
2022/10/30 05:55:24;;;;;;;19.27;6.50;;;;;;;;;;5074430;28;20384;-73
2022/10/30 05:57:54;;;;;;;18.73;5.93;;;;;;;;;;5074149;28;20392;-73
2022/10/30 06:00:20;;;;;;;16.40;5.80;;;;;;;;;;5073713;28;20028;-73
2022/10/30 06:02:47;;;;;;;16.40;6.22;;;;;;;;;;5073751;28;20032;-73
2022/10/30 06:05:13;;;;;;;10.30;5.03;;;;;;;;;;5073466;28;20028;-73
2022/10/30 06:07:39;;;;;;;14.23;5.30;;;;;;;;;;5073372;28;20032;-73
2022/10/30 06:10:06;;;;;;;13.85;6.00;;;;;;;;;;5074127;28;20051;-73
2022/10/30 06:12:32;;;;;;;13.13;5.68;;;;;;;;;;5074155;28;20041;-73
2022/10/30 06:14:58;;;;;;;13.15;5.47;;;;;;;;;;5073323;28;20048;-73
2022/10/30 06:17:25;;;;;;;12.65;5.68;;;;;;;;;;5073874;28;20036;-73
2022/10/30 06:19:51;;;;;;;20.38;5.85;;;;;;;;;;5072515;28;20025;-73
2022/10/30 06:22:17;;;;;;;16.63;6.13;;;;;;;;;;5073004;28;20374;-73
2022/10/30 06:24:44;;;;;;;14.45;5.93;;;;;;;;;;5073611;28;20021;-73
2022/10/30 06:27:10;;;;;;;24.08;6.28;;;;;;;;;;5073509;28;20371;-73
2022/10/30 06:29:37;;;;;;;15.50;6.30;;;;;;;;;;5071848;28;20016;-72
2022/10/30 06:32:03;;;;;;;17.15;6.32;;;;;;;;;;5073504;28;20078;-73
2022/10/30 06:34:29;;;;;;;11.98;5.55;;;;;;;;;;5073542;28;20371;-73
2022/10/30 06:36:56;;;;;;;15.43;5.93;;;;;;;;;;5073137;28;20033;-72
2022/10/30 06:39:22;;;;;;;18.05;6.38;;;;;;;;;;5073267;28;20485;-73
2022/10/30 06:41:48;;;;;;;16.95;5.75;;;;;;;;;;5073330;28;20031;-73
2022/10/30 06:44:15;;;;;;;14.48;5.80;;;;;;;;;;5073170;28;20481;-73
2022/10/30 06:46:41;;;;;;;19.70;6.38;;;;;;;;;;5073322;28;20065;-73
2022/10/30 06:49:07;;;;;;;16.77;6.60;;;;;;;;;;5073248;28;20024;-73
2022/10/30 06:51:34;;;;;;;16.13;6.18;;;;;;;;;;5073132;28;20027;-73
2022/10/30 06:54:00;;;;;;;18.83;6.45;;;;;;;;;;5072759;28;20070;-73
2022/10/30 06:56:26;;;;;;;17.70;6.20;;;;;;;;;;5073351;28;20025;-73
2022/10/30 06:58:53;;;;;;;14.98;5.60;;;;;;;;;;5073166;28;20486;-73
2022/10/30 07:01:19;;;;;;;19.80;6.25;;;;;;;;;;5072955;28;20023;-73
2022/10/30 07:03:45;;;;;;;14.50;5.93;;;;;;;;;;5072770;28;20024;-73
2022/10/30 07:06:11;;;;;;;18.75;5.75;;;;;;;;;;5072191;28;20035;-73
2022/10/30 07:08:38;;;;;;;17.40;6.10;;;;;;;;;;5072515;28;20026;-73
2022/10/30 07:11:04;;;;;;;15.43;5.35;;;;;;;;;;5072404;28;20404;-73
2022/10/30 07:13:30;;;;;;;17.23;5.45;;;;;;;;;;5071956;28;20220;-73
2022/10/30 07:15:58;;;;;;;20.35;5.50;;;;;;;;;;5072553;28;20021;-73
2022/10/30 07:18:24;;;;;;;20.42;6.63;;;;;;;;;;5072099;28;20374;-73
2022/10/30 07:20:56;;;;;;;17.08;5.10;;;;;;;;;;5072269;28;20027;-73
2022/10/30 07:23:23;;;;;;;15.80;5.95;;;;;;;;;;5072424;28;20016;-73
2022/10/30 07:25:49;;;;;;;16.35;5.45;;;;;;;;;;5072659;28;20028;-73
2022/10/30 07:28:15;;;;;;;15.75;5.90;;;;;;;;;;5073187;28;20025;-73
2022/10/30 07:30:42;;;;;;;13.27;5.32;;;;;;;;;;5073337;28;20017;-73
2022/10/30 07:33:09;;;;;;;17.95;5.68;;;;;;;;;;5073167;28;20506;-73
2022/10/30 07:35:36;;;;;;;16.45;6.03;;;;;;;;;;5073220;28;20031;-73
2022/10/30 07:38:03;;;;;;;12.93;5.88;;;;;;;;;;5073952;28;20017;-73
2022/10/30 07:40:29;;;;;;;23.88;6.65;;;;;;;;;;5073305;28;20021;-73
2022/10/30 07:42:56;;;;;;;20.45;5.88;;;;;;;;;;5073104;28;20013;-73
2022/10/30 07:45:23;;;;;;;13.05;5.30;;;;;;;;;;5072788;28;20033;-73
2022/10/30 07:47:49;;;;;;;13.50;4.80;;;;;;;;;;5073234;28;20025;-73
2022/10/30 07:50:16;;;;;;;16.13;5.03;;;;;;;;;;5072983;28;20027;-73
2022/10/30 07:52:42;;;;;;;19.63;5.10;;;;;;;;;;5073049;28;20038;-73
2022/10/30 07:55:09;;;;;;;17.92;5.03;;;;;;;;;;5071451;28;20035;-73
2022/10/30 07:57:42;;;;;;;14.35;5.15;;;;;;;;;;5072716;28;20023;-73
2022/10/30 08:00:09;;;;;;;15.68;5.68;;;;;;;;;;5073077;28;20016;-73
2022/10/30 08:02:36;;;;;;;15.75;5.05;;;;;;;;;;5074570;28;20032;-73
2022/10/30 08:05:03;;;;;;;11.25;4.70;;;;;;;;;;5073149;28;20028;-73
2022/10/30 08:07:30;;;;;;;18.83;5.15;;;;;;;;;;5073272;28;20031;-73
2022/10/30 08:09:56;;;;;;;12.73;4.40;;;;;;;;;;5073161;28;20030;-73
2022/10/30 08:12:23;;;;;;;13.75;4.43;;;;;;;;;;5073419;28;20029;-74
2022/10/30 08:14:49;;;;;;;11.02;4.38;;;;;;;;;;5072803;28;20045;-73
2022/10/30 08:17:15;;;;;;;10.77;4.40;;;;;;;;;;5072141;28;20496;-73
2022/10/30 08:19:42;;;;;;;11.15;4.72;;;;;;;;;;5072656;28;20051;-73
2022/10/30 08:22:09;;;;;;;13.57;4.93;;;;;;;;;;5072874;28;20024;-73
2022/10/30 08:24:35;;;;;;;14.68;4.53;;;;;;;;;;5074436;28;20327;-73
2022/10/30 08:27:01;;;;;;;14.63;4.78;;;;;;;;;;5075350;28;20035;-73
2022/10/30 08:29:28;;;;;;;10.52;4.43;;;;;;;;;;5075398;28;20032;-74
2022/10/30 08:31:54;;;;;;;11.40;4.50;;;;;;;;;;5075074;28;20499;-73
2022/10/30 08:34:20;;;;;;;17.52;4.70;;;;;;;;;;5075184;28;20032;-74
2022/10/30 08:36:50;;;;;;;13.70;4.97;;;;;;;;;;5075173;28;20023;-73
2022/10/30 08:39:17;;;;;;;12.07;4.30;;;;;;;;;;5075037;28;20397;-73
2022/10/30 08:41:44;;;;;;;15.93;4.72;;;;;;;;;;5074893;28;20262;-73
2022/10/30 08:44:10;;;;;;;15.93;4.68;;;;;;;;;;5074931;28;20477;-73
2022/10/30 08:46:37;;;;;;;13.35;4.78;;;;;;;;;;5075067;28;20017;-73
2022/10/30 08:49:04;;;;;;;12.27;4.85;;;;;;;;;;5074971;28;20035;-73
2022/10/30 08:51:33;;;;;;;16.48;4.70;;;;;;;;;;5075030;28;20027;-74
2022/10/30 08:54:00;;;;;;;15.43;5.07;;;;;;;;;;5074691;28;20439;-74
2022/10/30 08:56:27;;;;;;;12.73;4.78;;;;;;;;;;5075047;28;20033;-73
2022/10/30 08:58:53;;;;;;;13.75;5.07;;;;;;;;;;5074650;28;20025;-73
2022/10/30 09:01:19;;;;;;;16.25;5.47;;;;;;;;;;5074668;28;20024;-73
2022/10/30 09:03:46;;;;;;;23.92;5.70;;;;;;;;;;5074583;28;20013;-74
2022/10/30 09:06:13;;;;;;;19.02;5.10;;;;;;;;;;5074473;28;20496;-74
2022/10/30 09:08:39;;;;;;;21.73;5.28;;;;;;;;;;5074780;28;20481;-74
2022/10/30 09:11:05;;;;;;;18.77;5.38;;;;;;;;;;5074506;28;20031;-73
2022/10/30 09:13:32;;;;;;;14.75;5.28;;;;;;;;;;5074230;28;20047;-73
2022/10/30 09:16:03;;;;;;;19.35;4.82;;;;;;;;;;5074190;28;20041;-73
2022/10/30 09:18:29;;;;;;;17.80;4.97;;;;;;;;;;5074334;28;20477;-74
2022/10/30 09:20:56;;;;;;;18.88;4.95;;;;;;;;;;5074451;28;20020;-73
2022/10/30 09:23:22;;;;;;;13.77;4.55;;;;;;;;;;5074283;28;20077;-74
2022/10/30 09:25:48;;;;;;;16.05;4.60;;;;;;;;;;5074128;28;20028;-74
2022/10/30 09:28:15;;;;;;;18.20;4.75;;;;;;;;;;5074210;28;20016;-74
2022/10/30 09:30:41;;;;;;;15.80;5.57;;;;;;;;;;5073881;28;20017;-74
2022/10/30 09:33:08;;;;;;;18.52;4.50;;;;;;;;;;5072811;28;20035;-74
2022/10/30 09:35:35;;;;;;;18.92;4.22;;;;;;;;;;5073922;28;20028;-74
2022/10/30 09:38:02;;;;;;;18.45;4.30;;;;;;;;;;5073855;28;20016;-74
2022/10/30 09:40:31;;;;;;;17.10;4.38;;;;;;;;;;5073905;28;20435;-74
2022/10/30 09:43:05;;;;;;;20.88;4.70;;;;;;;;;;5074186;28;20038;-74
2022/10/30 09:45:34;;;;;;;15.95;4.90;;;;;;;;;;5073327;28;20030;-74
2022/10/30 09:48:00;;;;;;;20.17;4.82;;;;;;;;;;5072875;28;20024;-73
2022/10/30 09:50:33;;;;;;;17.85;4.38;;;;;;;;;;5073729;28;20043;-74
2022/10/30 09:53:16;;;;;;;13.73;4.07;;;;;;;;;;5073797;28;20097;-74
2022/10/30 09:55:46;;;;;;;17.13;4.65;;;;;;;;;;5073651;28;20515;-74
2022/10/30 09:58:13;;;;;;;;;;;;;;;;;;5073898;28;20028;-74
2022/10/30 10:00:42;;;;;;;15.60;4.38;;;;;;;;;;5073331;28;20389;-74
2022/10/30 10:03:17;;;;;;;14.65;4.13;;;;;;;;;;5073672;28;20031;-74
2022/10/30 10:05:51;;;;;;;13.80;4.30;;;;;;;;;;5073375;28;20520;-74
2022/10/30 10:08:20;;;;;;;17.67;4.70;;;;;;;;;;5073489;28;20069;-74
2022/10/30 10:10:52;;;;;;;19.58;4.90;;;;;;;;;;5073183;28;20029;-74
2022/10/30 10:13:18;;;;;;;26.40;4.72;;;;;;;;;;5072721;28;20036;-74
2022/10/30 10:15:56;;;;;;;18.30;4.68;;;;;;;;;;5073120;28;20109;-74
2022/10/30 10:18:25;;;;;;;20.83;4.45;;;;;;;;;;5072129;28;20063;-74
2022/10/30 10:20:53;;;;;;;27.88;5.18;;;;;;;;;;5073148;28;20025;-74
2022/10/30 10:23:25;;;;;;;20.90;5.05;;;;;;;;;;5073019;28;20082;-74
2022/10/30 10:25:58;;;;;;;16.98;4.38;;;;;;;;;;5072941;28;20396;-74
2022/10/30 10:28:49;;;;;;;11.23;4.05;;;;;;;;;;5072712;28;20031;-74
2022/10/30 10:31:21;;;;;;;17.52;4.75;;;;;;;;;;5072934;28;20017;-74
2022/10/30 10:34:06;;;;;;;21.25;4.57;;;;;;;;;;5071694;28;20036;-73
2022/10/30 10:36:45;;;;;;;21.05;4.78;;;;;;;;;;5073059;28;20034;-73
2022/10/30 10:39:21;;;;;;;19.65;4.60;;;;;;;;;;5072921;28;20374;-74
2022/10/30 10:41:58;;;;;;;16.50;4.32;;;;;;;;;;5072821;28;20028;-74
2022/10/30 10:44:36;;;;;;;17.15;4.60;;;;;;;;;;5072211;28;20024;-73
2022/10/30 10:47:06;;;;;;;24.30;4.93;;;;;;;;;;5072302;28;20498;-74
2022/10/30 10:49:47;;;;;;;21.00;4.55;;;;;;;;;;5072963;28;20031;-74
2022/10/30 10:52:20;;;;;;;18.55;4.40;;;;;;;;;;5071273;28;20489;-74
2022/10/30 10:54:55;;;;;;;16.65;5.13;;;;;;;;;;5071473;28;20024;-74
2022/10/30 10:57:27;;;;;;;29.15;4.88;;;;;;;;;;5072353;28;20024;-74
2022/10/30 10:59:56;;;;;;;19.30;4.60;;;;;;;;;;5072753;28;20024;-74
2022/10/30 11:02:25;;;;;;;13.13;4.18;;;;;;;;;;5072684;28;20039;-74
2022/10/30 11:04:53;;;;;;;12.15;4.70;;;;;;;;;;5072455;28;20024;-74
2022/10/30 11:07:24;;;;;;;15.00;4.57;;;;;;;;;;5072682;28;20027;-74
2022/10/30 11:09:51;;;;;;;22.60;5.43;;;;;;;;;;5072326;28;20050;-74
2022/10/30 11:12:24;;;;;;;16.70;5.18;;;;;;;;;;5072325;28;20032;-75
2022/10/30 11:14:51;;;;;;;15.70;4.20;;;;;;;;;;5072174;28;20065;-74
2022/10/30 11:17:23;;;;;;;16.52;4.30;;;;;;;;;;5072362;28;20024;-74
2022/10/30 11:19:54;;;;;;;19.60;4.32;;;;;;;;;;5072247;28;20024;-74
2022/10/30 11:22:32;;;;;;;20.20;4.65;;;;;;;;;;5071057;28;20489;-74
2022/10/30 11:25:19;;;;;;;20.75;4.70;;;;;;;;;;5072053;28;20024;-75
2022/10/30 11:27:49;;;;;;;23.55;5.15;;;;;;;;;;5071960;28;20039;-74
2022/10/30 11:30:15;;;;;;;;;;;;;;;;;;5072506;28;20024;-74
2022/10/30 11:32:42;;;;;;;24.42;4.03;;;;;;;;;;5072436;28;19928;-74
2022/10/30 11:35:08;;;;;;;23.20;5.20;;;;;;;;;;5072467;28;20017;-74
2022/10/30 11:37:35;;;;;;;17.30;4.35;;;;;;;;;;5072198;28;20029;-74
2022/10/30 11:40:04;;;;;;;19.30;5.25;;;;;;;;;;5072207;28;20462;-74
2022/10/30 11:42:30;;;;;;;21.40;5.22;;;;;;;;;;5071654;28;20051;-74
2022/10/30 11:44:57;;;;;;;17.65;4.53;;;;;;;;;;5072074;28;20029;-74
2022/10/30 11:47:34;;;;;;;20.15;4.47;;;;;;;;;;5072590;28;20033;-74
2022/10/30 11:50:02;;;;;;;13.55;3.90;;;;;;;;;;5072349;28;20029;-74
2022/10/30 11:52:28;;;;;;;15.90;4.03;;;;;;;;;;5072205;28;20029;-74
2022/10/30 11:55:00;;;;;;;22.02;4.82;;;;;;;;;;5072017;28;20035;-74
2022/10/30 11:57:30;;;;;;;17.77;4.97;;;;;;;;;;5072460;28;20049;-74
2022/10/30 11:59:56;;;;;;;17.95;4.85;;;;;;;;;;5074584;28;20028;-75
2022/10/30 12:02:28;;;;;;;22.00;4.25;;;;;;;;;;5075884;28;20044;-75
2022/10/30 12:04:56;;;;;;;21.65;4.47;;;;;;;;;;5075412;28;20031;-75
2022/10/30 12:07:22;;;;;;;16.55;4.43;;;;;;;;;;5074400;28;20024;-74
2022/10/30 12:09:48;;;;;;;24.27;5.00;;;;;;;;;;5075539;28;20032;-72
2022/10/30 12:12:23;;;;;;;15.32;4.32;;;;;;;;;;5075613;28;20039;-73
2022/10/30 12:14:50;;;;;;;18.80;4.07;;;;;;;;;;5075274;28;20050;-72
2022/10/30 12:17:17;;;;;;;19.17;4.78;;;;;;;;;;5074394;28;20021;-72
2022/10/30 12:19:48;;;;;;;19.42;4.15;;;;;;;;;;5075249;28;20385;-74
2022/10/30 12:22:29;;;;;;;21.48;4.32;;;;;;;;;;5075414;28;20029;-75
2022/10/30 12:24:56;;;;;;;17.77;4.20;;;;;;;;;;5073773;28;20017;-73
2022/10/30 12:27:22;;;;;;;23.83;4.78;;;;;;;;;;5074308;28;20033;-73
2022/10/30 12:30:14;;;;;;;15.32;4.28;;;;;;;;;;5075294;28;20045;-73
2022/10/30 12:32:43;;;;;;;17.27;4.55;;;;;;;;;;5075148;28;20047;-72
2022/10/30 12:35:31;;;;;;;20.50;4.32;;;;;;;;;;5075229;28;20028;-73
2022/10/30 12:37:58;;;;;;;20.92;4.28;;;;;;;;;;5075417;28;20062;-73
2022/10/30 12:40:27;;;;;;;17.52;4.43;;;;;;;;;;5074684;28;20021;-72
2022/10/30 12:43:05;;;;;;;18.23;4.32;;;;;;;;;;5074911;28;20032;-73
2022/10/30 12:45:35;;;;;;;19.52;4.65;;;;;;;;;;5074855;28;20392;-71
2022/10/30 12:48:07;;;;;;;22.70;4.18;;;;;;;;;;5075030;28;20377;-73
2022/10/30 12:50:44;;;;;;;18.25;4.18;;;;;;;;;;5075009;28;20028;-72
2022/10/30 12:53:11;;;;;;;15.65;3.90;;;;;;;;;;5074404;28;20447;-73
2022/10/30 12:55:43;;;;;;;15.80;4.82;;;;;;;;;;5075185;28;20043;-73
2022/10/30 12:58:09;;;;;;;11.65;4.07;;;;;;;;;;5074871;28;20013;-73
2022/10/30 13:00:45;;;;;;;20.35;4.07;;;;;;;;;;5074694;28;20474;-72
2022/10/30 13:03:11;;;;;;;15.50;3.78;;;;;;;;;;5074963;28;20032;-72
2022/10/30 13:05:41;;;;;;;16.27;4.07;;;;;;;;;;5074514;28;20025;-72
2022/10/30 13:08:19;;;;;;;19.58;4.13;;;;;;;;;;5074291;28;20026;-72
2022/10/30 13:10:49;;;;;;;13.48;4.30;;;;;;;;;;5074333;28;20031;-72
2022/10/30 13:13:21;;;;;;;17.05;4.95;;;;;;;;;;5074328;28;20028;-73
2022/10/30 13:15:51;;;;;;;18.80;4.65;;;;;;;;;;5074429;28;20393;-73
2022/10/30 13:18:19;;;;;;;21.08;4.55;;;;;;;;;;5074231;28;20035;-72
2022/10/30 13:20:55;;;;;;;18.10;4.60;;;;;;;;;;5074405;28;20025;-73
2022/10/30 13:23:26;;;;;;;18.42;4.45;;;;;;;;;;5073972;28;20027;-72
2022/10/30 13:25:55;;;;;;;15.05;4.07;;;;;;;;;;5073114;28;20085;-72
2022/10/30 13:28:24;;;;;;;17.40;4.75;;;;;;;;;;5074385;28;20033;-74
2022/10/30 13:31:00;;;;;;;20.85;4.20;;;;;;;;;;5074301;28;20023;-74
2022/10/30 13:33:40;;;;;;;20.05;4.53;;;;;;;;;;5072874;28;20036;-74
2022/10/30 13:36:06;;;;;;;19.58;4.18;;;;;;;;;;5074124;28;20439;-74
2022/10/30 13:38:44;;;;;;;16.27;4.30;;;;;;;;;;5073809;28;20024;-74
2022/10/30 13:41:11;;;;;;;12.30;4.05;;;;;;;;;;5074296;28;20030;-75
2022/10/30 13:43:49;;;;;;;15.65;4.30;;;;;;;;;;5073835;28;20021;-74
2022/10/30 13:46:21;;;;;;;15.10;3.90;;;;;;;;;;5074081;28;20028;-74
2022/10/30 13:48:54;;;;;;;17.23;4.32;;;;;;;;;;5073701;28;20024;-74
2022/10/30 13:51:20;;;;;;;15.15;4.43;;;;;;;;;;5073455;28;20024;-74
2022/10/30 13:53:48;;;;;;;14.68;4.40;;;;;;;;;;5072436;28;20045;-74
2022/10/30 13:56:17;;;;;;;14.23;4.10;;;;;;;;;;5073615;28;20021;-74
2022/10/30 13:58:46;;;;;;;12.82;3.78;;;;;;;;;;5073621;28;20027;-74
2022/10/30 14:01:27;;;;;;;15.23;4.20;;;;;;;;;;5073857;28;20069;-75
2022/10/30 14:03:56;;;;;;;14.95;4.22;;;;;;;;;;5073382;28;20020;-74
2022/10/30 14:06:35;;;;;;;18.38;4.63;;;;;;;;;;5073321;28;20082;-74
2022/10/30 14:09:19;;;;;;;16.48;4.30;;;;;;;;;;5073461;28;20487;-74
2022/10/30 14:11:46;;;;;;;14.43;4.63;;;;;;;;;;5072046;28;20582;-74
2022/10/30 14:14:12;;;;;;;17.77;3.70;;;;;;;;;;5072943;28;20063;-74
2022/10/30 14:16:43;;;;;;;14.18;3.97;;;;;;;;;;5073239;28;20039;-74
2022/10/30 14:19:12;;;;;;;18.25;4.50;;;;;;;;;;5072993;28;20024;-74
2022/10/30 14:21:42;;;;;;;24.00;4.38;;;;;;;;;;5072118;28;20085;-74
2022/10/30 14:24:12;;;;;;;21.20;5.47;;;;;;;;;;5073339;28;20292;-74
2022/10/30 14:26:38;;;;;;;;;;;;;;;;;;5073775;28;20031;-74
2022/10/30 14:29:37;;;;;;;14.30;4.40;;;;;;;;;;5072919;28;19908;-74
2022/10/30 14:32:23;;;;;;;20.95;5.57;;;;;;;;;;5072317;28;20050;-73
2022/10/30 14:34:50;;;;;;;16.65;5.03;;;;;;;;;;5071886;28;20036;-74
2022/10/30 14:37:22;;;;;;;19.00;4.50;;;;;;;;;;5072780;28;20474;-74
2022/10/30 14:39:50;;;;;;;17.35;4.95;;;;;;;;;;5072934;28;20031;-73
2022/10/30 14:42:16;;;;;;;18.27;4.50;;;;;;;;;;5072561;28;20027;-74